Stations météo

Publicité
Salsburgh, Grande-Bretagne (99024): Température de l'air & dewpoint: 11.12.2018 11:00:00 - 17.12.2018 11:00:00 (GMT)Salsburgh, Grande-Bretagne (99024): Vitesse du vent & gusts: 11.12.2018 11:00:00 - 17.12.2018 11:00:00 (GMT)Salsburgh, Grande-Bretagne (99024): Direction du vent: 11.12.2018 11:00:00 - 17.12.2018 11:00:00 (GMT)Salsburgh, Grande-Bretagne (99024): Quantités de précipitations: 11.12.2018 11:00:00 - 17.12.2018 11:00:00 (GMT)
Date & Time tt [°C] td [°C] ff [km/h] ff [knt] fx [km/h] fx [knt] dd rr [mm]
17.12.2018 11:00:00 2,1 2,1 24 13 - - SSE 0,0
17.12.2018 10:00:00 1,4 1,3 18 10 - - SSE 0,0
17.12.2018 09:00:00 1,2 1,2 15 8 - - SSE 0,0
17.12.2018 08:00:00 1,1 1,0 15 8 - - S 0,0
17.12.2018 07:00:00 1,6 1,5 16 9 - - S 0,0
17.12.2018 06:00:00 1,7 1,6 15 8 - - S 0,0
17.12.2018 05:00:00 2,1 2,0 15 8 - - S 0,0
17.12.2018 04:00:00 1,8 1,6 15 8 - - S 0,0
17.12.2018 03:00:00 2,1 1,9 13 7 - - S 0,0
17.12.2018 02:00:00 2,9 2,6 11 6 - - S 0,0
17.12.2018 01:00:00 3,1 2,9 13 7 - - SSE 0,0
17.12.2018 00:00:00 3,3 3,1 18 10 - - SSE 0,0
16.12.2018 23:00:00 3,1 3,1 16 9 - - SSE 0,4
16.12.2018 22:00:00 3,5 3,5 15 8 - - SSE 1,6
16.12.2018 21:00:00 3,6 3,5 18 10 - - SSE 1,0
16.12.2018 20:00:00 3,8 3,5 21 11 - - SSE 0,6
16.12.2018 19:00:00 3,9 3,1 18 10 - - SSE 0,0
16.12.2018 18:00:00 3,3 2,8 22 12 - - SSE 0,0
16.12.2018 17:00:00 3,4 2,9 22 12 - - SSE 0,0
16.12.2018 16:00:00 3,6 2,9 22 12 - - S 0,0
16.12.2018 15:00:00 4,2 3,0 21 11 - - S 0,0
16.12.2018 14:00:00 4,4 2,8 24 13 - - S 0,0
16.12.2018 13:00:00 4,9 3,3 26 14 - - S 0,0
16.12.2018 12:00:00 4,5 2,8 28 15 - - S 0,0
16.12.2018 11:00:00 3,6 2,5 34 18 - - S 0,0
16.12.2018 10:00:00 3,1 2,4 29 16 - - S 0,0
16.12.2018 09:00:00 3,1 3,0 26 14 - - SSW 0,0
16.12.2018 08:00:00 3,7 3,3 31 17 - - SW 0,2
16.12.2018 07:00:00 3,7 3,2 31 17 - - SSW 0,2
16.12.2018 06:00:00 2,7 2,5 26 14 52 28 SW 1,0
16.12.2018 05:00:00 2,9 2,5 35 19 50 27 WSW 3,0
16.12.2018 04:00:00 1,7 1,7 28 15 - - SW 0,2
16.12.2018 03:00:00 0,0 0,0 16 9 - - SW 0,0
16.12.2018 02:00:00 -0,1 -0,1 15 8 - - WSW 0,0
16.12.2018 01:00:00 0,3 0,3 8 4 - - E 0,0
16.12.2018 00:00:00 0,2 0,2 13 7 - - NE 0,2
15.12.2018 23:00:00 0,8 0,6 18 10 - - E 0,0
15.12.2018 22:00:00 1,3 0,4 21 11 - - E 0,0
15.12.2018 21:00:00 1,1 0,4 22 12 48 26 ESE 0,2
15.12.2018 20:00:00 0,7 0,3 26 14 55 30 ESE 0,4
15.12.2018 19:00:00 1,4 0,3 31 17 52 28 ESE 0,2
15.12.2018 18:00:00 1,0 0,4 18 10 48 26 ESE 0,6
15.12.2018 17:00:00 0,7 0,1 24 13 46 25 ESE 0,6
15.12.2018 16:00:00 0,6 -0,1 29 16 48 26 ESE 2,0
15.12.2018 15:00:00 0,6 -0,3 24 13 - - ESE 0,2
15.12.2018 14:00:00 0,4 -0,9 22 12 48 26 E 0,0
15.12.2018 13:00:00 0,3 -1,9 35 19 50 27 E 0,0
15.12.2018 12:00:00 0,2 -2,3 26 14 - - E 0,0
15.12.2018 11:00:00 0,3 -2,6 28 15 - - E 0,0
15.12.2018 10:00:00 0,5 -2,5 21 11 - - E 0,0
15.12.2018 09:00:00 0,6 -2,9 18 10 - - E 0,0
15.12.2018 08:00:00 0,4 -2,7 24 13 - - SE 0,0
15.12.2018 07:00:00 0,7 -3,5 21 11 - - ESE 0,0
15.12.2018 06:00:00 0,2 -2,8 24 13 - - SE 0,0
15.12.2018 05:00:00 0,9 -4,1 15 8 - - SE 0,0
15.12.2018 04:00:00 0,7 -3,9 15 8 - - E 0,0
15.12.2018 03:00:00 0,8 -4,3 29 16 46 25 SE 0,0
15.12.2018 02:00:00 0,7 -4,0 31 17 48 26 SE 0,0
15.12.2018 01:00:00 0,2 -4,0 35 19 65 35 SE 0,0
15.12.2018 00:00:00 0,4 -4,0 42 23 65 35 SSE 0,0
14.12.2018 23:00:00 0,4 -4,0 44 24 63 34 SSE 0,0
14.12.2018 22:00:00 0,9 -3,9 37 20 54 29 SSE 0,0
14.12.2018 21:00:00 0,6 -3,4 31 17 - - SSE 0,0
14.12.2018 20:00:00 0,5 -3,4 21 11 - - SSE 0,0
14.12.2018 19:00:00 -0,6 -4,0 16 9 - - ESE 0,0
14.12.2018 18:00:00 -0,6 -3,7 15 8 - - ESE 0,0
14.12.2018 17:00:00 -1,0 -3,8 16 9 - - E 0,0
14.12.2018 16:00:00 -0,3 -3,4 22 12 - - SE 0,0
14.12.2018 15:00:00 0,0 -3,3 16 9 - - SE 0,0
14.12.2018 14:00:00 1,2 -3,1 21 11 - - SSE 0,0
14.12.2018 13:00:00 1,3 -2,7 18 10 - - SSE 0,0
14.12.2018 12:00:00 1,2 -2,8 21 11 - - SSE 0,0
14.12.2018 11:00:00 1,1 -2,9 18 10 - - SSE 0,0
14.12.2018 10:00:00 -0,4 -3,1 16 9 - - SE 0,0
14.12.2018 09:00:00 -0,8 -2,9 22 12 - - SE 0,0
14.12.2018 08:00:00 -1,0 -3,1 15 8 - - ESE 0,0
14.12.2018 07:00:00 -0,7 -3,1 13 7 - - ESE 0,0
14.12.2018 06:00:00 -0,5 -2,6 13 7 - - ESE 0,0
14.12.2018 05:00:00 -0,6 -2,6 18 10 - - SE 0,0
14.12.2018 04:00:00 -0,1 -2,2 28 15 - - SE 0,0
14.12.2018 03:00:00 0,2 -2,1 26 14 46 25 SE 0,0
14.12.2018 02:00:00 0,6 -1,9 37 20 - - SSE 0,0
14.12.2018 01:00:00 0,5 -1,9 31 17 - - SE 0,0
14.12.2018 00:00:00 1,0 -1,9 35 19 48 26 SE 0,0
13.12.2018 23:00:00 0,8 -2,0 31 17 52 28 SE 0,0
13.12.2018 22:00:00 1,1 -1,9 29 16 - - SE 0,0
13.12.2018 21:00:00 0,7 -2,3 18 10 - - SE 0,0
13.12.2018 20:00:00 1,3 -2,4 24 13 50 27 SE 0,0
13.12.2018 19:00:00 1,3 -1,9 24 13 52 28 ESE 0,0
13.12.2018 18:00:00 1,3 -2,0 39 21 48 26 SE 0,0
13.12.2018 17:00:00 1,3 -1,6 18 10 - - ESE 0,0
13.12.2018 16:00:00 1,4 -2,3 22 12 - - SE 0,0
13.12.2018 15:00:00 1,6 -2,4 15 8 52 28 ESE 0,0
13.12.2018 14:00:00 1,8 -2,2 26 14 - - SSE 0,0
13.12.2018 13:00:00 2,0 -2,3 16 9 - - ESE 0,0
13.12.2018 12:00:00 2,0 -2,0 22 12 - - ESE 0,0
13.12.2018 11:00:00 1,7 -2,1 18 10 - - ESE 0,0
13.12.2018 10:00:00 1,7 -2,1 24 13 - - SE 0,0
13.12.2018 09:00:00 1,5 -2,2 18 10 - - ESE 0,0
13.12.2018 08:00:00 2,2 -1,4 18 10 - - ESE 0,0
13.12.2018 07:00:00 1,8 -1,5 18 10 - - ESE 0,0
13.12.2018 06:00:00 1,7 -1,6 22 12 - - ESE 0,0
13.12.2018 05:00:00 1,6 -2,3 22 12 48 26 ESE 0,0
13.12.2018 04:00:00 1,4 -2,2 18 10 - - ESE 0,0
13.12.2018 03:00:00 1,4 -2,4 21 11 50 27 ESE 0,0
13.12.2018 02:00:00 1,3 -2,4 21 11 48 26 ESE 0,0
13.12.2018 01:00:00 1,6 -2,7 24 13 - - SE 0,0
13.12.2018 00:00:00 1,5 -2,9 24 13 - - SE 0,0
12.12.2018 23:00:00 1,5 -1,3 18 10 - - ESE 0,0
12.12.2018 22:00:00 2,2 -0,1 24 13 - - ESE 0,0
12.12.2018 21:00:00 3,0 0,5 18 10 - - ESE 0,0
12.12.2018 20:00:00 4,3 1,7 15 8 - - ESE 0,0
12.12.2018 19:00:00 4,5 2,3 13 7 - - E 0,0
12.12.2018 18:00:00 4,2 1,9 21 11 48 26 SE 0,0
12.12.2018 17:00:00 5,0 2,3 31 17 50 27 SE 0,0
12.12.2018 16:00:00 5,2 2,5 31 17 57 31 SE 0,0
12.12.2018 15:00:00 5,7 3,1 31 17 50 27 SSE 0,0
12.12.2018 14:00:00 5,9 3,7 35 19 46 25 SSE 0,0
12.12.2018 13:00:00 6,0 3,6 22 12 - - SE 0,0
12.12.2018 12:00:00 6,2 3,8 26 14 46 25 SE 0,0
12.12.2018 11:00:00 6,0 3,5 34 18 48 26 SE 0,0
12.12.2018 10:00:00 5,4 3,7 24 13 - - SE 0,0
12.12.2018 09:00:00 5,5 3,9 11 6 - - E 0,0
12.12.2018 08:00:00 5,8 4,3 28 15 - - SSE 0,0
12.12.2018 07:00:00 5,8 4,6 22 12 - - SSE 0,0
12.12.2018 06:00:00 5,7 5,0 16 9 - - SE 0,0
12.12.2018 05:00:00 5,6 5,0 8 4 - - ESE 0,0
12.12.2018 04:00:00 5,6 5,2 13 7 - - E 0,0
12.12.2018 03:00:00 5,5 5,2 11 6 - - E 0,2
12.12.2018 02:00:00 5,6 5,3 13 7 - - SE 0,0
12.12.2018 01:00:00 5,9 5,0 9 5 - - ESE 0,0
12.12.2018 00:00:00 6,1 4,8 9 5 - - ESE 0,0
11.12.2018 23:00:00 6,0 4,8 13 7 - - E 0,0
11.12.2018 22:00:00 6,4 4,9 13 7 - - SE 0,0
11.12.2018 21:00:00 6,6 5,0 16 9 - - SE 0,0
11.12.2018 20:00:00 6,5 5,3 9 5 - - ESE 0,0
11.12.2018 19:00:00 6,4 5,6 13 7 - - E 0,0
11.12.2018 18:00:00 6,6 5,5 13 7 - - SE 0,0
11.12.2018 17:00:00 6,8 5,9 15 8 - - SE 0,0
11.12.2018 16:00:00 6,7 6,2 11 6 - - SE 0,0
11.12.2018 15:00:00 6,7 6,4 16 9 - - SSE 0,0
11.12.2018 14:00:00 5,9 5,7 9 5 - - ESE 0,0
11.12.2018 13:00:00 5,3 4,9 13 7 - - E 0,0
11.12.2018 12:00:00 5,2 4,9 9 5 - - ESE 0,0
11.12.2018 11:00:00 5,5 5,0 8 4 - - ESE 0,0

tt = Température de l'air
td = dewpoint
ff = Vitesse du vent
fx = gusts
dd = Direction du vent
rr = Quantités de précipitations

stations d'obs. à proximité